Time;durP1;ratioP1;P1;durP2;ratioP2;P2;SDS_P1;SDS_P2;PMS_P1;PMS_P2;Temp;Humidity;BMP_temperature;BMP_pressure;BME280_temperature;BME280_humidity;BME280_pressure;Samples;Min_cycle;Max_cycle;Signal;HPM_P1;HPM_P2
2023/05/22 00:01:45;;;;;;;;;;;;;;;17.78;73.34;99187.06;4364066;32;34109;-96
2023/05/22 00:04:19;;;;;;;;;;;;;;;18.04;72.69;99195.69;4364026;32;36050;-96
2023/05/22 00:06:48;;;;;;;;;;;;;;;17.52;76.39;99190.81;4375218;32;33450;-96
2023/05/22 00:09:16;;;;;;;;;;;;;;;17.39;77.00;99190.47;4363878;32;33321;-96
2023/05/22 00:11:44;;;;;;;;;;;;;;;16.82;78.22;99180.41;4363817;32;34135;-96
2023/05/22 00:14:12;;;;;;;;;;;;;;;16.67;79.68;99188.88;4374873;32;35059;-96
2023/05/22 00:16:41;;;;;;;;;;;;;;;16.78;80.10;99183.19;4363487;32;34747;-95
2023/05/22 00:19:12;;;;;;;;;;;;;;;16.93;79.49;99189.69;4374742;32;32213;-95
2023/05/22 00:21:43;;;;;;;;;;;;;;;16.54;80.42;99177.97;4364380;32;33936;-96
2023/05/22 00:24:11;;;;;;;;;;;;;;;16.17;83.38;99181.12;4376717;32;35307;-95
2023/05/22 00:26:39;;;;;;;;;;;;;;;16.67;79.19;99181.84;4376617;32;33232;-96
2023/05/22 00:29:08;;;;;;;;;;;;;;;16.79;78.75;99174.41;4376606;32;33461;-96
2023/05/22 00:31:36;;;;;;;;;;;;;;;16.88;78.56;99171.44;4365622;32;34178;-96
2023/05/22 00:34:04;;;;;;;;;;;;;;;16.73;78.51;99180.78;4365768;32;35213;-96
2023/05/22 00:36:32;;;;;;;;;;;;;;;16.33;81.26;99182.25;4376535;32;34732;-95
2023/05/22 00:39:00;;;;;;;;;;;;;;;16.07;83.01;99184.06;4376819;32;33348;-94
2023/05/22 00:41:28;;;;;;;;;;;;;;;16.39;82.16;99174.12;4376892;32;34152;-95
2023/05/22 00:43:56;;;;;;;;;;;;;;;16.33;80.90;99171.75;4365549;32;35992;-96
2023/05/22 00:46:24;;;;;;;;;;;;;;;16.45;80.36;99175.72;4365455;32;35462;-96
2023/05/22 00:48:57;;;;;;;;;;;;;;;16.33;81.42;99173.53;4365391;32;33301;-96
2023/05/22 00:51:25;;;;;;;;;;;;;;;16.84;78.63;99178.59;4364137;32;34012;-96
2023/05/22 00:53:53;;;;;;;;;;;;;;;16.80;77.75;99181.38;4364406;32;34430;-96
2023/05/22 00:56:21;;;;;;;;;;;;;;;16.23;81.45;99173.84;4347567;32;965116;-96
2023/05/22 00:58:49;;;;;;;;;;;;;;;16.35;78.32;99179.59;4376821;32;33730;-96
2023/05/22 01:01:17;;;;;;;;;;;;;;;15.82;83.17;99176.19;4377036;32;34179;-95
2023/05/22 01:03:49;;;;;;;;;;;;;;;15.97;83.07;99180.06;4364935;32;35047;-95
2023/05/22 01:06:17;;;;;;;;;;;;;;;15.91;83.91;99172.38;4377209;32;34950;-96
2023/05/22 01:08:45;;;;;;;;;;;;;;;15.53;85.83;99170.16;4366995;32;33398;-96
2023/05/22 01:11:14;;;;;;;;;;;;;;;15.07;89.01;99171.66;4366156;32;34236;-96
2023/05/22 01:14:03;;;;;;;;;;;;;;;15.39;88.50;99168.88;4376534;32;35946;-96
2023/05/22 01:16:36;;;;;;;;;;;;;;;15.68;85.28;99176.63;4377014;32;34668;-95
2023/05/22 01:19:24;;;;;;;;;;;;;;;15.57;86.67;99170.06;4377169;32;34299;-96
2023/05/22 01:22:11;;;;;;;;;;;;;;;15.17;89.95;99174.84;4361204;32;33781;-96
2023/05/22 01:24:51;;;;;;;;;;;;;;;14.86;90.62;99173.19;4366418;32;35152;-94
2023/05/22 01:27:24;;;;;;;;;;;;;;;14.82;91.56;99168.94;4366119;32;35296;-96
2023/05/22 01:30:01;;;;;;;;;;;;;;;15.04;90.35;99170.91;4365855;32;34059;-96
2023/05/22 01:32:29;;;;;;;;;;;;;;;15.62;83.91;99168.97;4365958;32;33926;-96
2023/05/22 01:34:58;;;;;;;;;;;;;;;15.05;89.15;99172.59;4366172;32;35260;-95
2023/05/22 01:37:26;;;;;;;;;;;;;;;14.84;91.09;99180.25;4376673;32;34622;-96
2023/05/22 01:39:55;;;;;;;;;;;;;;;15.54;84.85;99165.75;4376795;32;33340;-96
2023/05/22 01:42:22;;;;;;;;;;;;;;;14.93;89.80;99166.84;4376949;32;34005;-96
2023/05/22 01:44:50;;;;;;;;;;;;;;;14.70;91.54;99169.31;4377087;32;35928;-95
2023/05/22 01:47:18;;;;;;;;;;;;;;;14.94;91.49;99165.94;4376776;32;34522;-95
2023/05/22 01:49:47;;;;;;;;;;;;;;;15.40;86.65;99167.97;4376788;32;33332;-96
2023/05/22 01:52:18;;;;;;;;;;;;;;;15.01;89.65;99165.75;4365513;32;34105;-96
2023/05/22 01:54:49;;;;;;;;;;;;;;;15.13;88.28;99165.34;4376559;32;35310;-96
2023/05/22 01:57:36;;;;;;;;;;;;;;;15.47;83.85;99159.84;4376626;32;34502;-96
2023/05/22 02:00:10;;;;;;;;;;;;;;;14.73;89.38;99156.13;4376522;32;33578;-96
2023/05/22 02:02:43;;;;;;;;;;;;;;;15.44;85.25;99153.84;4376099;32;33955;-96
2023/05/22 02:05:30;;;;;;;;;;;;;;;14.93;88.56;99152.84;4375032;32;36949;-96
2023/05/22 02:07:58;;;;;;;;;;;;;;;15.68;81.63;99153.00;4364970;32;34723;-96
2023/05/22 02:10:26;;;;;;;;;;;;;;;14.78;85.62;99148.97;4376546;32;33484;-96
2023/05/22 02:12:54;;;;;;;;;;;;;;;14.69;87.35;99150.09;4376012;32;35091;-96
2023/05/22 02:15:23;;;;;;;;;;;;;;;14.54;87.49;99146.16;4351662;32;35420;-95
2023/05/22 02:17:52;;;;;;;;;;;;;;;14.82;86.28;99147.97;4365211;32;34420;-96
2023/05/22 02:20:20;;;;;;;;;;;;;;;14.73;86.31;99150.88;4376196;32;33434;-96
2023/05/22 02:22:48;;;;;;;;;;;;;;;14.91;83.93;99145.06;4364776;32;34358;-96
2023/05/22 02:25:16;;;;;;;;;;;;;;;13.97;89.62;99139.94;4365147;32;35246;-96
2023/05/22 02:27:48;;;;;;;;;;;;;;;14.79;85.86;99145.47;4364596;32;34516;-96
2023/05/22 02:30:16;;;;;;;;;;;;;;;14.28;88.35;99143.47;4365434;32;33036;-96
2023/05/22 02:32:46;;;;;;;;;;;;;;;14.67;85.04;99145.84;4365240;32;33833;-96
2023/05/22 02:35:14;;;;;;;;;;;;;;;15.13;81.72;99144.38;4365180;32;35165;-96
2023/05/22 02:37:44;;;;;;;;;;;;;;;14.51;85.28;99135.78;4376484;32;33438;-96
2023/05/22 02:40:14;;;;;;;;;;;;;;;14.29;85.74;99139.94;4375727;32;33765;-96
2023/05/22 02:42:43;;;;;;;;;;;;;;;14.24;85.13;99137.44;4364993;32;34196;-96
2023/05/22 02:45:11;;;;;;;;;;;;;;;13.95;87.08;99136.50;4364836;32;35152;-96
2023/05/22 02:47:38;;;;;;;;;;;;;;;14.33;85.42;99141.53;4376131;32;33483;-95
2023/05/22 02:50:07;;;;;;;;;;;;;;;14.00;88.20;99133.78;4375544;32;33608;-96
2023/05/22 02:52:35;;;;;;;;;;;;;;;14.16;86.06;99140.28;4376012;32;33791;-96
2023/05/22 02:55:04;;;;;;;;;;;;;;;14.31;85.23;99138.13;4363538;32;36188;-96
2023/05/22 02:57:33;;;;;;;;;;;;;;;14.10;85.12;99135.25;4375375;32;34466;-96
2023/05/22 03:00:00;;;;;;;;;;;;;;;14.14;85.96;99136.84;4375617;32;34406;-95
2023/05/22 03:02:35;;;;;;;;;;;;;;;14.04;84.77;99135.41;4364482;32;35042;-96
2023/05/22 03:05:04;;;;;;;;;;;;;;;13.39;89.05;99137.09;4364592;32;34812;-94
2023/05/22 03:07:33;;;;;;;;;;;;;;;13.72;87.20;99131.91;4363542;32;33619;-95
2023/05/22 03:10:01;;;;;;;;;;;;;;;13.84;88.12;99136.81;4375999;32;32138;-96
2023/05/22 03:12:30;;;;;;;;;;;;;;;13.96;85.60;99134.75;4375884;32;33988;-94
2023/05/22 03:14:58;;;;;;;;;;;;;;;13.99;86.23;99142.50;4351000;32;35135;-95
2023/05/22 03:17:26;;;;;;;;;;;;;;;13.62;87.46;99138.28;4375832;32;35341;-94
2023/05/22 03:19:54;;;;;;;;;;;;;;;13.46;90.47;99133.47;4364378;32;34178;-95
2023/05/22 03:22:21;;;;;;;;;;;;;;;13.99;87.06;99138.16;4375381;32;33847;-95
2023/05/22 03:24:51;;;;;;;;;;;;;;;13.26;90.87;99131.31;4364296;32;35064;-94
2023/05/22 03:27:19;;;;;;;;;;;;;;;13.58;88.09;99127.03;4375409;32;34750;-95
2023/05/22 03:29:47;;;;;;;;;;;;;;;13.88;87.85;99129.72;4375600;32;34077;-95
2023/05/22 03:32:16;;;;;;;;;;;;;;;13.96;87.15;99132.13;4375802;32;33857;-96
2023/05/22 03:34:45;;;;;;;;;;;;;;;14.25;85.79;99133.06;4375163;32;35250;-94
2023/05/22 03:37:13;;;;;;;;;;;;;;;13.64;89.18;99133.84;4364232;32;34792;-96
2023/05/22 03:39:40;;;;;;;;;;;;;;;13.48;93.08;99129.94;4363967;32;34044;-95
2023/05/22 03:42:12;;;;;;;;;;;;;;;13.45;92.33;99130.88;4364219;32;34202;-95
2023/05/22 03:44:40;;;;;;;;;;;;;;;13.10;94.83;99135.22;4363974;32;35319;-96
2023/05/22 03:47:07;;;;;;;;;;;;;;;14.23;87.95;99126.09;4362842;32;34732;-95
2023/05/22 03:49:35;;;;;;;;;;;;;;;14.50;86.98;99136.66;4364026;32;34250;-95
2023/05/22 03:52:04;;;;;;;;;;;;;;;14.76;83.91;99135.06;4363806;32;34185;-96
2023/05/22 03:54:32;;;;;;;;;;;;;;;14.39;87.15;99126.50;4375004;32;34879;-96
2023/05/22 03:57:02;;;;;;;;;;;;;;;14.12;89.41;99133.44;4362456;32;34154;-96
2023/05/22 03:59:30;;;;;;;;;;;;;;;14.53;89.56;99130.50;4364246;32;33314;-95
2023/05/22 04:01:59;;;;;;;;;;;;;;;14.49;89.42;99129.72;4363655;32;34987;-95
2023/05/22 04:04:29;;;;;;;;;;;;;;;14.57;89.62;99135.56;4363874;32;34999;-95
2023/05/22 04:06:58;;;;;;;;;;;;;;;15.29;84.56;99132.47;4374749;32;34671;-94
2023/05/22 04:09:26;;;;;;;;;;;;;;;14.60;88.84;99135.53;4363668;32;34073;-94
2023/05/22 04:11:57;;;;;;;;;;;;;;;14.62;91.51;99137.25;4362633;32;33554;-96
2023/05/22 04:14:25;;;;;;;;;;;;;;;15.05;87.04;99143.75;4374652;32;36017;-96
2023/05/22 04:16:53;;;;;;;;;;;;;;;14.69;87.84;99144.00;4374653;32;34431;-96
2023/05/22 04:19:21;;;;;;;;;;;;;;;14.80;88.19;99131.44;4374535;32;33127;-93
2023/05/22 04:21:49;;;;;;;;;;;;;;;14.29;93.01;99135.53;4363392;32;35068;-95
2023/05/22 04:24:17;;;;;;;;;;;;;;;14.63;91.40;99136.31;4374627;32;35216;-96
2023/05/22 04:26:46;;;;;;;;;;;;;;;15.31;87.42;99133.25;4374561;32;35064;-95
2023/05/22 04:29:15;;;;;;;;;;;;;;;14.69;90.07;99149.25;4362330;32;31787;-95
2023/05/22 04:31:43;;;;;;;;;;;;;;;15.41;86.37;99148.72;4374408;32;34076;-96
2023/05/22 04:34:14;;;;;;;;;;;;;;;15.59;84.17;99148.09;4374311;32;35216;-96
2023/05/22 04:36:43;;;;;;;;;;;;;;;15.99;82.90;99143.22;4363125;32;35167;-95
2023/05/22 04:39:15;;;;;;;;;;;;;;;15.49;86.03;99149.28;4373999;32;33615;-96
2023/05/22 04:41:43;;;;;;;;;;;;;;;15.03;89.12;99143.81;4350170;32;33063;-95
2023/05/22 04:44:13;;;;;;;;;;;;;;;15.02;90.00;99146.47;4363078;32;35265;-95
2023/05/22 04:46:41;;;;;;;;;;;;;;;15.60;85.46;99155.06;4363015;32;35403;-95
2023/05/22 04:49:09;;;;;;;;;;;;;;;15.67;84.23;99151.31;4361859;32;32013;-95
2023/05/22 04:51:37;;;;;;;;;;;;;;;16.31;81.14;99152.56;4362801;32;34883;-94
2023/05/22 04:54:24;;;;;;;;;;;;;;;15.80;87.70;99158.78;4372202;32;36025;-95
2023/05/22 04:56:52;;;;;;;;;;;;;;;16.05;86.09;99153.50;4362536;32;34483;-96
2023/05/22 04:59:22;;;;;;;;;;;;;;;16.32;85.75;99151.62;4349712;32;33357;-95
2023/05/22 05:01:50;;;;;;;;;;;;;;;16.30;87.20;99140.31;4349392;32;34136;-96
2023/05/22 05:04:19;;;;;;;;;;;;;;;16.03;90.57;99145.69;4349593;32;35971;-95
2023/05/22 05:06:47;;;;;;;;;;;;;;;16.37;90.78;99154.94;4349099;32;34874;-96
2023/05/22 05:09:15;;;;;;;;;;;;;;;16.81;87.00;99151.53;4365149;32;33055;-96
2023/05/22 05:11:43;;;;;;;;;;;;;;;16.65;88.20;99154.75;4364898;32;33989;-96
2023/05/22 05:14:11;;;;;;;;;;;;;;;16.46;91.30;99156.38;4351416;32;35146;-96
2023/05/22 05:16:39;;;;;;;;;;;;;;;16.46;89.69;99159.00;4351697;32;35425;-96
2023/05/22 05:19:08;;;;;;;;;;;;;;;16.66;87.14;99160.88;4351809;32;33418;-96
2023/05/22 05:21:36;;;;;;;;;;;;;;;16.96;84.36;99160.59;4364652;32;34145;-95
2023/05/22 05:24:04;;;;;;;;;;;;;;;17.39;82.19;99161.50;4364974;32;36067;-95
2023/05/22 05:26:33;;;;;;;;;;;;;;;18.04;72.01;99162.28;4351657;32;34521;-95
2023/05/22 05:29:01;;;;;;;;;;;;;;;18.72;65.07;99165.34;4351697;32;33080;-95
2023/05/22 05:31:31;;;;;;;;;;;;;;;19.08;59.16;99175.09;4364767;32;34241;-94
2023/05/22 05:34:01;;;;;;;;;;;;;;;19.49;56.25;99166.91;4364604;32;35724;-94
2023/05/22 05:36:29;;;;;;;;;;;;;;;19.84;61.27;99164.28;4338969;32;35489;-95
2023/05/22 05:38:57;;;;;;;;;;;;;;;20.11;53.36;99170.84;4363691;32;33144;-96
2023/05/22 05:41:26;;;;;;;;;;;;;;;20.88;55.13;99169.34;4351591;32;33999;-95
2023/05/22 05:43:58;;;;;;;;;;;;;;;21.68;52.84;99173.59;4364840;32;35248;-96
2023/05/22 05:46:28;;;;;;;;;;;;;;;22.13;51.54;99182.41;4352414;32;34369;-95
2023/05/22 05:48:56;;;;;;;;;;;;;;;22.11;53.27;99176.34;4324268;33;32227;-96
2023/05/22 05:51:25;;;;;;;;;;;;;;;22.40;50.36;99176.38;4324465;33;34182;-94
2023/05/22 05:53:54;;;;;;;;;;;;;;;22.74;47.88;99179.53;4348484;33;34788;-95
2023/05/22 05:56:21;;;;;;;;;;;;;;;23.35;46.02;99187.16;4350141;33;34262;-94
2023/05/22 05:58:50;;;;;;;;;;;;;;;23.89;43.96;99181.78;4362248;32;34141;-94
2023/05/22 06:01:23;;;;;;;;;;;;;;;24.25;42.73;99188.19;4361526;32;33991;-95
2023/05/22 06:03:51;;;;;;;;;;;;;;;23.53;45.04;99180.63;4363244;32;34967;-94
2023/05/22 06:06:20;;;;;;;;;;;;;;;24.17;41.80;99182.53;4364283;32;35472;-94
2023/05/22 06:08:54;;;;;;;;;;;;;;;24.62;41.92;99180.31;4364489;32;33307;-95
2023/05/22 06:11:24;;;;;;;;;;;;;;;25.17;37.82;99176.28;4363731;32;34210;-96
2023/05/22 06:13:53;;;;;;;;;;;;;;;24.97;38.09;99174.22;4365228;32;35125;-94
2023/05/22 06:16:20;;;;;;;;;;;;;;;25.26;35.80;99180.09;4352086;32;34026;-94
2023/05/22 06:18:51;;;;;;;;;;;;;;;25.50;36.10;99172.09;4362710;32;31644;-96
2023/05/22 06:21:20;;;;;;;;;;;;;;;25.16;35.23;99163.91;4365399;32;35267;-96
2023/05/22 06:23:49;;;;;;;;;;;;;;;25.60;33.83;99174.91;4363767;32;34971;-96
2023/05/22 06:26:17;;;;;;;;;;;;;;;25.86;33.74;99172.91;4363393;32;34500;-96
2023/05/22 06:28:45;;;;;;;;;;;;;;;25.28;36.38;99172.00;4364484;32;33467;-95
2023/05/22 06:31:14;;;;;;;;;;;;;;;25.70;34.38;99172.41;4363093;32;33895;-95
2023/05/22 06:33:42;;;;;;;;;;;;;;;25.96;36.48;99177.56;4364080;32;35294;-94
2023/05/22 06:36:11;;;;;;;;;;;;;;;25.86;35.34;99174.75;4363412;32;34813;-96
2023/05/22 06:38:39;;;;;;;;;;;;;;;25.61;34.95;99178.44;4363135;32;34112;-94
2023/05/22 06:41:08;;;;;;;;;;;;;;;25.79;33.16;99170.84;4362936;32;33356;-95
2023/05/22 06:43:36;;;;;;;;;;;;;;;25.92;32.90;99182.25;4363227;32;35980;-94
2023/05/22 06:46:05;;;;;;;;;;;;;;;25.49;32.78;99186.37;4363147;32;34661;-95
2023/05/22 06:48:35;;;;;;;;;;;;;;;26.49;33.71;99192.06;4363387;32;34167;-95
2023/05/22 06:51:03;;;;;;;;;;;;;;;26.27;31.23;99186.72;4364332;32;34172;-95
2023/05/22 06:53:31;;;;;;;;;;;;;;;26.89;31.79;99193.37;4363079;32;36058;-94
2023/05/22 06:55:59;;;;;;;;;;;;;;;27.18;31.94;99195.53;4350722;32;34086;-95
2023/05/22 06:58:28;;;;;;;;;;;;;;;25.82;33.30;99190.12;4350239;32;33488;-95
2023/05/22 07:00:56;;;;;;;;;;;;;;;25.31;33.99;99193.09;4363051;32;33976;-94
2023/05/22 07:03:26;;;;;;;;;;;;;;;25.47;34.42;99183.00;4374930;32;35248;-94
2023/05/22 07:06:01;;;;;;;;;;;;;;;25.81;36.53;99180.41;4363143;32;34664;-95
2023/05/22 07:08:29;;;;;;;;;;;;;;;26.22;33.20;99179.06;4364373;32;33678;-95
2023/05/22 07:10:57;;;;;;;;;;;;;;;26.63;34.57;99184.78;4362737;32;33271;-94
2023/05/22 07:13:25;;;;;;;;;;;;;;;26.67;35.66;99184.44;4350514;32;34494;-96
2023/05/22 07:15:53;;;;;;;;;;;;;;;26.78;34.64;99190.75;4362884;32;34607;-94
2023/05/22 07:18:22;;;;;;;;;;;;;;;26.14;32.52;99175.28;4362956;32;34122;-95
2023/05/22 07:20:50;;;;;;;;;;;;;;;24.84;35.57;99178.75;4363973;32;34971;-94
2023/05/22 07:23:18;;;;;;;;;;;;;;;24.77;39.18;99178.34;4350482;32;33856;-95
2023/05/22 07:25:48;;;;;;;;;;;;;;;25.60;34.86;99192.72;4363003;32;34641;-96
2023/05/22 07:28:18;;;;;;;;;;;;;;;25.13;35.77;99193.47;4350671;32;32760;-96
2023/05/22 07:30:46;;;;;;;;;;;;;;;25.31;36.74;99199.28;4363649;32;34021;-94
2023/05/22 07:33:14;;;;;;;;;;;;;;;24.74;39.51;99199.84;4363966;32;35032;-94
2023/05/22 07:35:44;;;;;;;;;;;;;;;24.48;39.12;99193.69;4362912;32;34563;-96
2023/05/22 07:38:13;;;;;;;;;;;;;;;23.88;40.08;99193.41;4350785;32;32332;-93
2023/05/22 07:40:42;;;;;;;;;;;;;;;24.67;37.34;99191.47;4363972;32;34067;-93
2023/05/22 07:43:10;;;;;;;;;;;;;;;24.90;37.05;99199.59;4362631;32;34927;-94
2023/05/22 07:45:38;;;;;;;;;;;;;;;24.17;38.52;99195.84;4362554;32;34617;-94
2023/05/22 07:48:07;;;;;;;;;;;;;;;23.80;39.38;99187.69;4364023;32;33299;-95
2023/05/22 07:50:35;;;;;;;;;;;;;;;22.59;45.12;99192.00;4363965;32;33811;-94
2023/05/22 07:53:05;;;;;;;;;;;;;;;22.46;45.93;99189.22;4362381;32;35951;-95
2023/05/22 07:55:33;;;;;;;;;;;;;;;23.09;39.37;99182.62;4363878;32;34493;-95
2023/05/22 07:58:02;;;;;;;;;;;;;;;23.16;41.19;99182.22;4350047;32;32180;-94
2023/05/22 08:00:32;;;;;;;;;;;;;;;22.35;48.40;99175.78;4362785;32;34515;-95
2023/05/22 08:03:00;;;;;;;;;;;;;;;22.86;45.57;99172.59;4363526;32;35313;-95
2023/05/22 08:05:28;;;;;;;;;;;;;;;23.20;46.82;99184.56;4363463;32;35423;-94
2023/05/22 08:07:56;;;;;;;;;;;;;;;23.73;43.07;99170.47;4362377;32;33396;-94
2023/05/22 08:10:24;;;;;;;;;;;;;;;24.08;43.59;99180.53;4363506;32;34863;-94
2023/05/22 08:13:01;;;;;;;;;;;;;;;24.84;40.92;99184.06;4363364;32;36001;-94
2023/05/22 08:15:29;;;;;;;;;;;;;;;24.96;45.38;99189.34;4362376;32;33691;-95
2023/05/22 08:17:57;;;;;;;;;;;;;;;24.41;42.68;99186.16;4362150;32;32245;-95
2023/05/22 08:20:24;;;;;;;;;;;;;;;24.72;39.21;99180.47;4362175;32;32379;-94
2023/05/22 08:22:53;;;;;;;;;;;;;;;24.62;38.47;99180.31;4362111;32;36038;-94
2023/05/22 08:25:21;;;;;;;;;;;;;;;24.78;38.93;99180.06;4362100;32;34378;-95
2023/05/22 08:27:48;;;;;;;;;;;;;;;24.46;43.92;99182.31;4362107;32;33991;-94
2023/05/22 08:30:17;;;;;;;;;;;;;;;25.17;40.25;99176.28;4362097;32;34184;-95
2023/05/22 08:32:44;;;;;;;;;;;;;;;26.14;41.43;99185.97;4363026;32;35205;-96
2023/05/22 08:35:13;;;;;;;;;;;;;;;26.98;35.88;99181.94;4362007;32;34643;-95
2023/05/22 08:37:41;;;;;;;;;;;;;;;27.65;35.03;99184.53;4374155;32;34132;-96
2023/05/22 08:40:12;;;;;;;;;;;;;;;27.69;36.80;99184.16;4363116;32;34210;-95
2023/05/22 08:42:41;;;;;;;;;;;;;;;27.03;34.87;99190.44;4362659;32;35197;-95
2023/05/22 08:45:08;;;;;;;;;;;;;;;26.35;37.26;99188.78;4364908;32;34997;-96
2023/05/22 08:47:36;;;;;;;;;;;;;;;27.25;34.05;99186.03;4351630;32;31753;-96
2023/05/22 08:50:05;;;;;;;;;;;;;;;27.99;32.74;99191.44;4363887;32;33871;-95
2023/05/22 08:52:47;;;;;;;;;;;;;;;27.67;33.35;99193.28;4351556;32;33777;-95
2023/05/22 08:55:15;;;;;;;;;;;;;;;27.24;33.89;99189.66;4363842;32;34777;-96
2023/05/22 08:57:43;;;;;;;;;;;;;;;27.32;34.14;99189.91;4363480;32;33829;-95
2023/05/22 09:00:11;;;;;;;;;;;;;;;26.45;35.12;99181.75;4351469;32;33263;-95
2023/05/22 09:02:39;;;;;;;;;;;;;;;26.79;35.41;99181.75;4363816;32;36236;-95
2023/05/22 09:05:08;;;;;;;;;;;;;;;27.16;36.07;99194.78;4365060;32;34762;-95
2023/05/22 09:07:36;;;;;;;;;;;;;;;27.10;35.92;99185.44;4363773;32;32197;-95
2023/05/22 09:10:06;;;;;;;;;;;;;;;26.55;39.84;99185.37;4363479;32;34229;-95
2023/05/22 09:12:33;;;;;;;;;;;;;;;26.22;40.22;99184.41;4364705;32;35202;-96
2023/05/22 09:15:12;;;;;;;;;;;;;;;27.42;36.85;99188.19;4351386;32;34733;-95
2023/05/22 09:17:40;;;;;;;;;;;;;;;27.57;37.52;99187.88;4363715;32;33190;-96
2023/05/22 09:20:12;;;;;;;;;;;;;;;26.81;40.34;99182.50;4351263;32;33267;-96
2023/05/22 09:22:40;;;;;;;;;;;;;;;27.98;35.32;99180.84;4339575;32;34342;-95
2023/05/22 09:25:08;;;;;;;;;;;;;;;26.98;37.57;99187.28;4363480;32;34741;-94
2023/05/22 09:27:35;;;;;;;;;;;;;;;27.36;36.67;99180.66;4364698;32;33129;-96
2023/05/22 09:30:03;;;;;;;;;;;;;;;28.50;32.60;99176.34;4364690;32;34042;-94
2023/05/22 09:32:32;;;;;;;;;;;;;;;28.27;33.41;99183.69;4364721;32;35378;-95
2023/05/22 09:35:03;;;;;;;;;;;;;;;28.64;34.50;99185.00;4363332;32;34542;-96
2023/05/22 09:37:33;;;;;;;;;;;;;;;27.89;33.02;99186.97;4363703;32;33477;-95
2023/05/22 09:40:05;;;;;;;;;;;;;;;28.10;33.92;99179.78;4375763;32;34142;-94
2023/05/22 09:42:34;;;;;;;;;;;;;;;28.11;34.22;99175.28;4363530;32;35197;-95
2023/05/22 09:45:02;;;;;;;;;;;;;;;28.70;31.76;99176.44;4364818;32;35310;-95
2023/05/22 09:47:31;;;;;;;;;;;;;;;29.44;33.59;99175.16;4363377;32;32087;-96
2023/05/22 09:50:00;;;;;;;;;;;;;;;28.70;34.45;99181.78;4364496;32;35060;-95
2023/05/22 09:52:28;;;;;;;;;;;;;;;28.47;35.52;99181.94;4363361;32;35215;-94
2023/05/22 09:54:56;;;;;;;;;;;;;;;28.53;33.20;99173.34;4374525;32;34697;-95
2023/05/22 09:57:25;;;;;;;;;;;;;;;27.79;32.73;99171.69;4363172;32;33117;-94
2023/05/22 09:59:56;;;;;;;;;;;;;;;27.91;36.91;99177.84;4351080;32;32929;-94
2023/05/22 10:02:25;;;;;;;;;;;;;;;27.75;34.18;99170.25;4363350;32;36151;-95
2023/05/22 10:04:53;;;;;;;;;;;;;;;27.95;35.44;99181.09;4363551;32;34941;-95
2023/05/22 10:07:22;;;;;;;;;;;;;;;28.04;33.86;99174.97;4363462;32;33358;-96
2023/05/22 10:09:50;;;;;;;;;;;;;;;29.64;30.98;99166.09;4363262;32;34974;-94
2023/05/22 10:12:19;;;;;;;;;;;;;;;30.18;30.37;99170.97;4363258;32;35948;-96
2023/05/22 10:14:47;;;;;;;;;;;;;;;30.58;29.54;99159.06;4364255;32;34705;-96
2023/05/22 10:17:16;;;;;;;;;;;;;;;29.16;33.90;99168.78;4364227;32;33432;-95
2023/05/22 10:19:44;;;;;;;;;;;;;;;28.31;31.54;99165.53;4364345;32;34979;-95
2023/05/22 10:22:19;;;;;;;;;;;;;;;28.14;33.21;99153.59;4363113;32;35113;-95
2023/05/22 10:24:47;;;;;;;;;;;;;;;29.06;30.54;99160.69;4351908;32;33690;-95
2023/05/22 10:27:15;;;;;;;;;;;;;;;30.04;29.51;99143.59;4363360;32;33177;-96
2023/05/22 10:29:49;;;;;;;;;;;;;;;29.37;31.76;99139.16;4350791;32;32762;-96
2023/05/22 10:32:29;;;;;;;;;;;;;;;28.61;32.94;99145.94;4351023;32;35359;-96
2023/05/22 10:35:01;;;;;;;;;;;;;;;29.02;35.15;99140.53;4363419;32;34418;-95
2023/05/22 10:37:35;;;;;;;;;;;;;;;29.50;29.17;99143.22;4364264;32;33302;-96
2023/05/22 10:40:04;;;;;;;;;;;;;;;28.92;31.57;99144.03;4362916;32;32474;-96
2023/05/22 10:42:32;;;;;;;;;;;;;;;29.04;34.36;99130.50;4363072;32;34939;-95
2023/05/22 10:45:00;;;;;;;;;;;;;;;29.21;31.75;99137.88;4363098;32;35353;-95
2023/05/22 10:47:30;;;;;;;;;;;;;;;29.88;31.77;99135.31;4363263;32;33307;-96
2023/05/22 10:50:08;;;;;;;;;;;;;;;30.55;29.07;99135.19;4362954;32;34111;-95
2023/05/22 10:52:37;;;;;;;;;;;;;;;28.70;31.35;99128.19;4362920;32;35142;-96
2023/05/22 10:55:09;;;;;;;;;;;;;;;27.94;34.05;99131.25;4362924;32;34649;-94
2023/05/22 10:57:37;;;;;;;;;;;;;;;28.24;36.74;99126.91;4362823;32;33290;-95
2023/05/22 11:00:06;;;;;;;;;;;;;;;28.50;35.96;99122.75;4363010;32;34173;-96
2023/05/22 11:02:41;;;;;;;;;;;;;;;28.98;32.54;99121.19;4362899;32;35386;-95
2023/05/22 11:05:24;;;;;;;;;;;;;;;29.10;31.89;99116.53;4362803;32;34710;-96
2023/05/22 11:07:52;;;;;;;;;;;;;;;29.62;34.74;99114.41;4364027;32;34158;-94
2023/05/22 11:10:26;;;;;;;;;;;;;;;29.22;34.60;99112.75;4362884;32;34614;-95
2023/05/22 11:13:12;;;;;;;;;;;;;;;29.68;34.92;99102.25;4350648;32;33904;-96
2023/05/22 11:15:47;;;;;;;;;;;;;;;29.83;36.29;99105.34;4364047;32;35357;-95
2023/05/22 11:18:15;;;;;;;;;;;;;;;29.93;32.80;99099.94;4362860;32;33488;-96
2023/05/22 11:20:43;;;;;;;;;;;;;;;30.68;35.67;99099.91;4362922;32;33757;-96
2023/05/22 11:23:11;;;;;;;;;;;;;;;29.52;33.21;99100.16;4350916;32;36013;-96
2023/05/22 11:25:39;;;;;;;;;;;;;;;29.63;35.95;99100.00;4362820;32;35424;-96
2023/05/22 11:28:10;;;;;;;;;;;;;;;28.99;34.62;99098.72;4362937;32;33306;-94
2023/05/22 11:30:38;;;;;;;;;;;;;;;29.24;35.14;99097.38;4363885;32;33953;-96
2023/05/22 11:33:06;;;;;;;;;;;;;;;30.60;29.33;99097.97;4362677;32;35999;-96
2023/05/22 11:35:34;;;;;;;;;;;;;;;30.55;30.18;99089.50;4362613;32;34557;-96
2023/05/22 11:38:05;;;;;;;;;;;;;;;30.42;29.27;99085.31;4363872;32;33469;-96
2023/05/22 11:40:33;;;;;;;;;;;;;;;29.72;29.52;99087.56;4350624;32;32806;-96
2023/05/22 11:43:03;;;;;;;;;;;;;;;28.99;34.82;99081.81;4362972;32;34833;-96
2023/05/22 11:45:31;;;;;;;;;;;;;;;29.41;34.80;99082.38;4362858;32;34271;-96
2023/05/22 11:47:59;;;;;;;;;;;;;;;30.06;34.45;99077.16;4362566;32;33192;-96
2023/05/22 11:50:27;;;;;;;;;;;;;;;29.80;34.98;99078.81;4362539;32;33930;-96
2023/05/22 11:53:08;;;;;;;;;;;;;;;29.92;31.42;99068.75;4363749;32;35945;-95
2023/05/22 11:55:37;;;;;;;;;;;;;;;30.28;28.97;99077.75;4363487;32;34505;-96
2023/05/22 11:58:05;;;;;;;;;;;;;;;30.18;31.03;99076.97;4363241;32;34100;-96
2023/05/22 12:00:32;;;;;;;;;;;;;;;31.18;27.68;99081.44;4363647;32;34860;-95
2023/05/22 12:03:01;;;;;;;;;;;;;;;30.72;27.28;99075.25;4363571;32;36045;-96
2023/05/22 12:05:30;;;;;;;;;;;;;;;30.17;29.08;99067.22;4362434;32;34746;-96
2023/05/22 12:07:58;;;;;;;;;;;;;;;29.38;31.84;99068.41;4362289;32;33603;-96
2023/05/22 12:10:26;;;;;;;;;;;;;;;29.87;35.21;99074.53;4350316;32;33057;-96
2023/05/22 12:12:54;;;;;;;;;;;;;;;30.18;30.40;99069.75;4363344;32;35190;-96
2023/05/22 12:15:23;;;;;;;;;;;;;;;29.89;31.83;99061.81;4362095;32;33419;-95
2023/05/22 12:17:53;;;;;;;;;;;;;;;30.55;28.88;99068.00;4373756;32;33131;-96
2023/05/22 12:20:21;;;;;;;;;;;;;;;30.59;30.11;99067.56;4362188;32;34046;-95
2023/05/22 12:22:49;;;;;;;;;;;;;;;30.83;30.43;99057.22;4362303;32;34567;-95
2023/05/22 12:25:18;;;;;;;;;;;;;;;31.16;27.69;99061.91;4362150;32;34962;-94
2023/05/22 12:27:47;;;;;;;;;;;;;;;29.93;30.30;99052.50;4363282;32;32861;-96
2023/05/22 12:30:15;;;;;;;;;;;;;;;30.60;29.15;99052.28;4361965;32;34270;-95
2023/05/22 12:32:48;;;;;;;;;;;;;;;29.95;33.37;99049.63;4362176;32;35184;-96
2023/05/22 12:35:16;;;;;;;;;;;;;;;29.56;35.51;99047.91;4361914;32;35300;-95
2023/05/22 12:37:48;;;;;;;;;;;;;;;29.38;35.43;99044.28;4363455;32;33298;-96
2023/05/22 12:40:16;;;;;;;;;;;;;;;30.06;34.54;99042.25;4362146;32;33838;-96
2023/05/22 12:42:44;;;;;;;;;;;;;;;29.82;35.29;99036.56;4362978;32;35119;-95
2023/05/22 12:45:12;;;;;;;;;;;;;;;29.64;36.33;99033.75;4361914;32;33447;-96
2023/05/22 12:47:40;;;;;;;;;;;;;;;29.57;36.46;99035.34;4361782;32;34080;-96
2023/05/22 12:50:09;;;;;;;;;;;;;;;29.71;34.88;99029.50;4362954;32;34113;-96
2023/05/22 12:52:36;;;;;;;;;;;;;;;29.12;33.38;99020.72;4374021;32;35853;-96
2023/05/22 12:55:05;;;;;;;;;;;;;;;29.14;35.77;99024.09;4361914;32;34522;-96
2023/05/22 12:57:33;;;;;;;;;;;;;;;29.35;37.46;99023.97;4362861;32;33517;-95
2023/05/22 13:00:00;;;;;;;;;;;;;;;29.04;39.01;99017.91;4362839;32;34878;-95